PWSweather.com
Personal Weather Stations
Station Observations
KKSTOPEK1
South Central , Topeka, KS 66611

South Central Topeka, KS 66611

Lat: 39.03, Lon: -95.71

Elevation: 945

Station Type: Davis Vantage Vue

http://tallgrasspixels.net/wx/wx.html

High Low Average
Temperature 81.3°F27.4°F 54.4°F12.4°F 66.7°F19.3°F
Dew Point 53.4°F11.9°F 36.0°F2.2°F 42.9°F6.1°F
Winds 6.2 mph SE10.0 mph SE Calm Calm 2.7 mph 4.3 mph
Wind Gusts 11.0 mph17.7 mph -- 5.2 mph8.4 mph
Humidity 55% 31% 43%
Pressure 29.98 in1015.20 in 29.58 in1001.70 in -
Precipitation 0.00 in0.00 in - -
Hour Temp Dew Point Humidity Winds Wind Gusts Pressure Precip Precip Rate Daily Precip Total
12:00 AM 57.8°F14.3°C 36.0°F2.2°C 44% 0.3 mph SE0.5 kmh SE -- 29.97 in1014.9 mb 0.00 in0.0 mm 0.00 in/hr0.0 mm/hr 0.00 in0.0 mm
12:15 AM 57.5°F14.2°C 36.3°F2.4°C 45% 0.7 mph ESE1.1 kmh ESE 2.0 mph3.2 kmh 29.97 in1014.9 mb 0.00 in0.0 mm 0.00 in/hr0.0 mm/hr 0.00 in0.0 mm
12:30 AM 57.1°F13.9°C 36.5°F2.5°C 46% 0.4 mph E0.6 kmh E 2.0 mph3.2 kmh 29.98 in1015.2 mb 0.00 in0.0 mm 0.00 in/hr0.0 mm/hr 0.00 in0.0 mm
12:45 AM 56.7°F13.7°C 36.1°F2.3°C 46% 1.2 mph ESE1.9 kmh ESE 3.0 mph4.8 kmh 29.97 in1014.9 mb 0.00 in0.0 mm 0.00 in/hr0.0 mm/hr 0.00 in0.0 mm
01:00 AM 56.6°F13.7°C 36.0°F2.2°C 46% 1.8 mph E2.9 kmh E 3.0 mph4.8 kmh 29.97 in1014.9 mb 0.00 in0.0 mm 0.00 in/hr0.0 mm/hr 0.00 in0.0 mm
01:15 AM 56.5°F13.6°C 37.0°F2.8°C 48% 0.4 mph ESE0.6 kmh ESE 1.0 mph1.6 kmh 29.97 in1014.9 mb 0.00 in0.0 mm 0.00 in/hr0.0 mm/hr 0.00 in0.0 mm
01:30 AM 56.1°F13.4°C 36.7°F2.6°C 48% 1.3 mph ESE2.1 kmh ESE 3.0 mph4.8 kmh 29.96 in1014.6 mb 0.00 in0.0 mm 0.00 in/hr0.0 mm/hr 0.00 in0.0 mm
01:45 AM 56.0°F13.3°C 36.6°F2.6°C 48% 1.0 mph ESE1.6 kmh ESE 2.0 mph3.2 kmh 29.95 in1014.2 mb 0.00 in0.0 mm 0.00 in/hr0.0 mm/hr 0.00 in0.0 mm
02:00 AM 55.8°F13.2°C 36.9°F2.7°C 49% 0.6 mph ESE1.0 kmh ESE 4.0 mph6.4 kmh 29.95 in1014.2 mb 0.00 in0.0 mm 0.00 in/hr0.0 mm/hr 0.00 in0.0 mm
02:15 AM 55.9°F13.3°C 37.5°F3.1°C 50% 0.4 mph ESE0.6 kmh ESE 1.0 mph1.6 kmh 29.95 in1014.2 mb 0.00 in0.0 mm 0.00 in/hr0.0 mm/hr 0.00 in0.0 mm
02:30 AM 55.5°F13.1°C 37.2°F2.9°C 50% Calm Calm 1.0 mph1.6 kmh 29.96 in1014.6 mb 0.00 in0.0 mm 0.00 in/hr0.0 mm/hr 0.00 in0.0 mm
02:45 AM 55.1°F12.8°C 37.3°F2.9°C 51% 0.4 mph WSW0.6 kmh WSW 1.0 mph1.6 kmh 29.97 in1014.9 mb 0.00 in0.0 mm 0.00 in/hr0.0 mm/hr 0.00 in0.0 mm
03:00 AM 54.9°F12.7°C 38.6°F3.7°C 54% Calm Calm -- 29.97 in1014.9 mb 0.00 in0.0 mm 0.00 in/hr0.0 mm/hr 0.00 in0.0 mm
03:15 AM 54.4°F12.4°C 38.1°F3.4°C 54% Calm Calm -- 29.96 in1014.6 mb 0.00 in0.0 mm 0.00 in/hr0.0 mm/hr 0.00 in0.0 mm
03:30 AM 54.4°F12.4°C 38.5°F3.6°C 55% Calm Calm -- 29.96 in1014.6 mb 0.00 in0.0 mm 0.00 in/hr0.0 mm/hr 0.00 in0.0 mm
03:45 AM 55.3°F12.9°C 38.4°F3.6°C 53% 0.7 mph SE1.1 kmh SE 3.0 mph4.8 kmh 29.95 in1014.2 mb 0.00 in0.0 mm 0.00 in/hr0.0 mm/hr 0.00 in0.0 mm
04:00 AM 55.6°F13.1°C 38.3°F3.5°C 52% 1.7 mph ESE2.7 kmh ESE 3.0 mph4.8 kmh 29.94 in1013.9 mb 0.00 in0.0 mm 0.00 in/hr0.0 mm/hr 0.00 in0.0 mm
04:15 AM 55.6°F13.1°C 38.7°F3.7°C 53% 2.3 mph SE3.7 kmh SE 7.0 mph11.3 kmh 29.93 in1013.5 mb 0.00 in0.0 mm 0.00 in/hr0.0 mm/hr 0.00 in0.0 mm
04:30 AM 56.0°F13.3°C 38.6°F3.7°C 52% 2.2 mph ESE3.5 kmh ESE 4.0 mph6.4 kmh 29.93 in1013.5 mb 0.00 in0.0 mm 0.00 in/hr0.0 mm/hr 0.00 in0.0 mm
04:45 AM 56.7°F13.7°C 37.7°F3.2°C 49% 3.4 mph SSE5.5 kmh SSE 8.0 mph12.9 kmh 29.93 in1013.5 mb 0.00 in0.0 mm 0.00 in/hr0.0 mm/hr 0.00 in0.0 mm
05:00 AM 57.0°F13.9°C 38.0°F3.3°C 49% 2.5 mph E4.0 kmh E 4.0 mph6.4 kmh 29.92 in1013.2 mb 0.00 in0.0 mm 0.00 in/hr0.0 mm/hr 0.00 in0.0 mm
05:15 AM 56.9°F13.8°C 37.9°F3.3°C 49% 1.9 mph SE3.1 kmh SE 5.0 mph8.0 kmh 29.93 in1013.5 mb 0.00 in0.0 mm 0.00 in/hr0.0 mm/hr 0.00 in0.0 mm
05:30 AM 57.0°F13.9°C 38.5°F3.6°C 50% 1.2 mph ESE1.9 kmh ESE 2.0 mph3.2 kmh 29.93 in1013.5 mb 0.00 in0.0 mm 0.00 in/hr0.0 mm/hr 0.00 in0.0 mm
05:45 AM 56.8°F13.8°C 38.3°F3.5°C 50% 2.1 mph SE3.4 kmh SE 4.0 mph6.4 kmh 29.95 in1014.2 mb 0.00 in0.0 mm 0.00 in/hr0.0 mm/hr 0.00 in0.0 mm
06:00 AM 56.6°F13.7°C 38.2°F3.4°C 50% 2.4 mph ESE3.9 kmh ESE 3.0 mph4.8 kmh 29.95 in1014.2 mb 0.00 in0.0 mm 0.00 in/hr0.0 mm/hr 0.00 in0.0 mm
06:15 AM 56.6°F13.7°C 38.7°F3.7°C 51% 1.6 mph SE2.6 kmh SE 4.0 mph6.4 kmh 29.95 in1014.2 mb 0.00 in0.0 mm 0.00 in/hr0.0 mm/hr 0.00 in0.0 mm
06:30 AM 56.3°F13.5°C 38.9°F3.8°C 52% 0.7 mph E1.1 kmh E 2.0 mph3.2 kmh 29.95 in1014.2 mb 0.00 in0.0 mm 0.00 in/hr0.0 mm/hr 0.00 in0.0 mm
06:45 AM 56.1°F13.4°C 39.2°F4.0°C 53% 0.7 mph ESE1.1 kmh ESE 3.0 mph4.8 kmh 29.96 in1014.6 mb 0.00 in0.0 mm 0.00 in/hr0.0 mm/hr 0.00 in0.0 mm
07:00 AM 56.2°F13.4°C 38.3°F3.5°C 51% 2.6 mph SSE4.2 kmh SSE 5.0 mph8.0 kmh 29.95 in1014.2 mb 0.00 in0.0 mm 0.00 in/hr0.0 mm/hr 0.00 in0.0 mm
07:15 AM 56.2°F13.4°C 38.8°F3.8°C 52% 1.9 mph E3.1 kmh E 3.0 mph4.8 kmh 29.94 in1013.9 mb 0.00 in0.0 mm 0.00 in/hr0.0 mm/hr 0.00 in0.0 mm
07:30 AM 55.9°F13.3°C 38.5°F3.6°C 52% 3.4 mph SE5.5 kmh SE 9.0 mph14.5 kmh 29.94 in1013.9 mb 0.00 in0.0 mm 0.00 in/hr0.0 mm/hr 0.00 in0.0 mm
07:45 AM 56.0°F13.3°C 38.6°F3.7°C 52% 2.8 mph SE4.5 kmh SE 5.0 mph8.0 kmh 29.95 in1014.2 mb 0.00 in0.0 mm 0.00 in/hr0.0 mm/hr 0.00 in0.0 mm
08:00 AM 56.1°F13.4°C 39.2°F4.0°C 53% 1.3 mph E2.1 kmh E 3.0 mph4.8 kmh 29.95 in1014.2 mb 0.00 in0.0 mm 0.00 in/hr0.0 mm/hr 0.00 in0.0 mm
08:15 AM 56.3°F13.5°C 38.9°F3.8°C 52% 1.2 mph SE1.9 kmh SE 2.0 mph3.2 kmh 29.96 in1014.6 mb 0.00 in0.0 mm 0.00 in/hr0.0 mm/hr 0.00 in0.0 mm
08:30 AM 56.7°F13.7°C 38.8°F3.8°C 51% 1.5 mph E2.4 kmh E 5.0 mph8.0 kmh 29.96 in1014.6 mb 0.00 in0.0 mm 0.00 in/hr0.0 mm/hr 0.00 in0.0 mm
08:45 AM 57.1°F13.9°C 38.6°F3.7°C 50% 2.8 mph E4.5 kmh E 4.0 mph6.4 kmh 29.95 in1014.2 mb 0.00 in0.0 mm 0.00 in/hr0.0 mm/hr 0.00 in0.0 mm
09:00 AM 58.0°F14.4°C 38.9°F3.8°C 49% 2.0 mph ESE3.2 kmh ESE 4.0 mph6.4 kmh 29.94 in1013.9 mb 0.00 in0.0 mm 0.00 in/hr0.0 mm/hr 0.00 in0.0 mm
09:15 AM 58.0°F14.4°C 38.9°F3.8°C 49% 3.3 mph SE5.3 kmh SE 6.0 mph9.7 kmh 29.92 in1013.2 mb 0.00 in0.0 mm 0.00 in/hr0.0 mm/hr 0.00 in0.0 mm
09:30 AM 58.3°F14.6°C 38.7°F3.7°C 48% 3.0 mph E4.8 kmh E 5.0 mph8.0 kmh 29.92 in1013.2 mb 0.00 in0.0 mm 0.00 in/hr0.0 mm/hr 0.00 in0.0 mm
09:45 AM 58.6°F14.8°C 38.4°F3.6°C 47% 2.3 mph SE3.7 kmh SE 4.0 mph6.4 kmh 29.94 in1013.9 mb 0.00 in0.0 mm 0.00 in/hr0.0 mm/hr 0.00 in0.0 mm
10:00 AM 59.0°F15.0°C 38.8°F3.8°C 47% 2.2 mph E3.5 kmh E 6.0 mph9.7 kmh 29.94 in1013.9 mb 0.00 in0.0 mm 0.00 in/hr0.0 mm/hr 0.00 in0.0 mm
10:15 AM 59.1°F15.1°C 38.9°F3.8°C 47% 2.5 mph SE4.0 kmh SE 3.0 mph4.8 kmh 29.93 in1013.5 mb 0.00 in0.0 mm 0.00 in/hr0.0 mm/hr 0.00 in0.0 mm
10:30 AM 59.3°F15.2°C 39.1°F3.9°C 47% 3.2 mph ESE5.1 kmh ESE 7.0 mph11.3 kmh 29.93 in1013.5 mb 0.00 in0.0 mm 0.00 in/hr0.0 mm/hr 0.00 in0.0 mm
10:45 AM 59.8°F15.4°C 39.0°F3.9°C 46% 3.2 mph SE5.1 kmh SE 4.0 mph6.4 kmh 29.92 in1013.2 mb 0.00 in0.0 mm 0.00 in/hr0.0 mm/hr 0.00 in0.0 mm
11:00 AM 61.3°F16.3°C 40.3°F4.6°C 46% 1.5 mph E2.4 kmh E 3.0 mph4.8 kmh 29.92 in1013.2 mb 0.00 in0.0 mm 0.00 in/hr0.0 mm/hr 0.00 in0.0 mm
11:15 AM 62.4°F16.9°C 40.2°F4.6°C 44% 2.4 mph SE3.9 kmh SE 7.0 mph11.3 kmh 29.91 in1012.9 mb 0.00 in0.0 mm 0.00 in/hr0.0 mm/hr 0.00 in0.0 mm
11:30 AM 64.0°F17.8°C 41.0°F5.0°C 43% 2.2 mph NE3.5 kmh NE 6.0 mph9.7 kmh 29.89 in1012.2 mb 0.00 in0.0 mm 0.00 in/hr0.0 mm/hr 0.00 in0.0 mm
11:45 AM 64.7°F18.2°C 41.7°F5.4°C 43% 3.8 mph E6.1 kmh E 6.0 mph9.7 kmh 29.87 in1011.5 mb 0.00 in0.0 mm 0.00 in/hr0.0 mm/hr 0.00 in0.0 mm
12:00 PM 67.9°F19.9°C 41.4°F5.2°C 38% 4.0 mph SSW6.4 kmh SSW 6.0 mph9.7 kmh 29.86 in1011.2 mb 0.00 in0.0 mm 0.00 in/hr0.0 mm/hr 0.00 in0.0 mm
12:15 PM 68.0°F20.0°C 42.1°F5.6°C 39% 3.3 mph SE5.3 kmh SE 4.0 mph6.4 kmh 29.84 in1010.5 mb 0.00 in0.0 mm 0.00 in/hr0.0 mm/hr 0.00 in0.0 mm
12:30 PM 69.1°F20.6°C 41.0°F5.0°C 36% 4.6 mph E7.4 kmh E 9.0 mph14.5 kmh 29.83 in1010.2 mb 0.00 in0.0 mm 0.00 in/hr0.0 mm/hr 0.00 in0.0 mm
12:45 PM 71.1°F21.7°C 43.5°F6.4°C 37% 4.4 mph SE7.1 kmh SE 7.0 mph11.3 kmh 29.82 in1009.8 mb 0.00 in0.0 mm 0.00 in/hr0.0 mm/hr 0.00 in0.0 mm
01:00 PM 72.6°F22.6°C 43.4°F6.3°C 35% 3.5 mph SE5.6 kmh SE 6.0 mph9.7 kmh 29.80 in1009.1 mb 0.00 in0.0 mm 0.00 in/hr0.0 mm/hr 0.00 in0.0 mm
01:15 PM 73.1°F22.8°C 42.2°F5.7°C 33% 4.5 mph SE7.2 kmh SE 9.0 mph14.5 kmh 29.79 in1008.8 mb 0.00 in0.0 mm 0.00 in/hr0.0 mm/hr 0.00 in0.0 mm
01:30 PM 72.8°F22.7°C 42.0°F5.6°C 33% 4.8 mph SW7.7 kmh SW 7.0 mph11.3 kmh 29.78 in1008.5 mb 0.00 in0.0 mm 0.00 in/hr0.0 mm/hr 0.00 in0.0 mm
01:45 PM 73.6°F23.1°C 44.2°F6.8°C 35% 3.2 mph SE5.1 kmh SE 9.0 mph14.5 kmh 29.77 in1008.1 mb 0.00 in0.0 mm 0.00 in/hr0.0 mm/hr 0.00 in0.0 mm
02:00 PM 75.7°F24.3°C 43.8°F6.6°C 32% 3.1 mph SE5.0 kmh SE 8.0 mph12.9 kmh 29.77 in1008.1 mb 0.00 in0.0 mm 0.00 in/hr0.0 mm/hr 0.00 in0.0 mm
02:15 PM 75.2°F24.0°C 44.1°F6.7°C 33% 5.1 mph E8.2 kmh E 6.0 mph9.7 kmh 29.77 in1008.1 mb 0.00 in0.0 mm 0.00 in/hr0.0 mm/hr 0.00 in0.0 mm
02:30 PM 75.9°F24.4°C 44.7°F7.1°C 33% 3.6 mph WSW5.8 kmh WSW 6.0 mph9.7 kmh 29.77 in1008.1 mb 0.00 in0.0 mm 0.00 in/hr0.0 mm/hr 0.00 in0.0 mm
02:45 PM 76.2°F24.6°C 45.0°F7.2°C 33% 3.9 mph S6.3 kmh S 8.0 mph12.9 kmh 29.77 in1008.1 mb 0.00 in0.0 mm 0.00 in/hr0.0 mm/hr 0.00 in0.0 mm
03:00 PM 77.3°F25.2°C 47.5°F8.6°C 35% 1.5 mph SSW2.4 kmh SSW 5.0 mph8.0 kmh 29.76 in1007.8 mb 0.00 in0.0 mm 0.00 in/hr0.0 mm/hr 0.00 in0.0 mm
03:15 PM 77.5°F25.3°C 46.1°F7.8°C 33% 4.6 mph SSE7.4 kmh SSE 10.0 mph16.1 kmh 29.76 in1007.8 mb 0.00 in0.0 mm 0.00 in/hr0.0 mm/hr 0.00 in0.0 mm
03:30 PM 77.3°F25.2°C 46.7°F8.2°C 34% 4.3 mph SE6.9 kmh SE 8.0 mph12.9 kmh 29.75 in1007.5 mb 0.00 in0.0 mm 0.00 in/hr0.0 mm/hr 0.00 in0.0 mm
03:45 PM 78.8°F26.0°C 47.2°F8.4°C 33% 4.4 mph ESE7.1 kmh ESE 9.0 mph14.5 kmh 29.74 in1007.1 mb 0.00 in0.0 mm 0.00 in/hr0.0 mm/hr 0.00 in0.0 mm
04:00 PM 78.6°F25.9°C 47.1°F8.4°C 33% 4.0 mph SSE6.4 kmh SSE 6.0 mph9.7 kmh 29.72 in1006.4 mb 0.00 in0.0 mm 0.00 in/hr0.0 mm/hr 0.00 in0.0 mm
04:15 PM 79.3°F26.3°C 48.5°F9.2°C 34% 4.8 mph SE7.7 kmh SE 7.0 mph11.3 kmh 29.71 in1006.1 mb 0.00 in0.0 mm 0.00 in/hr0.0 mm/hr 0.00 in0.0 mm
04:30 PM 79.1°F26.2°C 48.3°F9.1°C 34% 4.0 mph WSW6.4 kmh WSW 8.0 mph12.9 kmh 29.69 in1005.4 mb 0.00 in0.0 mm 0.00 in/hr0.0 mm/hr 0.00 in0.0 mm
04:45 PM 79.7°F26.5°C 48.0°F8.9°C 33% 4.9 mph SE7.9 kmh SE 10.0 mph16.1 kmh 29.69 in1005.4 mb 0.00 in0.0 mm 0.00 in/hr0.0 mm/hr 0.00 in0.0 mm
05:00 PM 80.6°F27.0°C 48.8°F9.3°C 33% 3.2 mph S5.1 kmh S 7.0 mph11.3 kmh 29.68 in1005.1 mb 0.00 in0.0 mm 0.00 in/hr0.0 mm/hr 0.00 in0.0 mm
05:15 PM 81.1°F27.3°C 49.3°F9.6°C 33% 2.7 mph E4.3 kmh E 5.0 mph8.0 kmh 29.67 in1004.7 mb 0.00 in0.0 mm 0.00 in/hr0.0 mm/hr 0.00 in0.0 mm
05:30 PM 81.3°F27.4°C 47.8°F8.8°C 31% 3.7 mph SE6.0 kmh SE 8.0 mph12.9 kmh 29.66 in1004.4 mb 0.00 in0.0 mm 0.00 in/hr0.0 mm/hr 0.00 in0.0 mm
05:45 PM 80.6°F27.0°C 47.2°F8.4°C 31% 3.6 mph SSE5.8 kmh SSE 6.0 mph9.7 kmh 29.65 in1004.1 mb 0.00 in0.0 mm 0.00 in/hr0.0 mm/hr 0.00 in0.0 mm
06:00 PM 80.7°F27.1°C 47.2°F8.4°C 31% 4.5 mph SE7.2 kmh SE 11.0 mph17.7 kmh 29.64 in1003.7 mb 0.00 in0.0 mm 0.00 in/hr0.0 mm/hr 0.00 in0.0 mm
06:15 PM 80.4°F26.9°C 47.0°F8.3°C 31% 4.2 mph ESE6.8 kmh ESE 7.0 mph11.3 kmh 29.63 in1003.4 mb 0.00 in0.0 mm 0.00 in/hr0.0 mm/hr 0.00 in0.0 mm
06:30 PM 79.8°F26.6°C 47.3°F8.5°C 32% 3.7 mph ESE6.0 kmh ESE 7.0 mph11.3 kmh 29.62 in1003.0 mb 0.00 in0.0 mm 0.00 in/hr0.0 mm/hr 0.00 in0.0 mm
06:45 PM 79.5°F26.4°C 47.1°F8.4°C 32% 4.0 mph SE6.4 kmh SE 7.0 mph11.3 kmh 29.62 in1003.0 mb 0.00 in0.0 mm 0.00 in/hr0.0 mm/hr 0.00 in0.0 mm
07:00 PM 79.3°F26.3°C 46.9°F8.3°C 32% 6.2 mph SE10.0 kmh SE 8.0 mph12.9 kmh 29.61 in1002.7 mb 0.00 in0.0 mm 0.00 in/hr0.0 mm/hr 0.00 in0.0 mm
07:15 PM 79.0°F26.1°C 47.4°F8.6°C 33% 3.7 mph S6.0 kmh S 6.0 mph9.7 kmh 29.60 in1002.4 mb 0.00 in0.0 mm 0.00 in/hr0.0 mm/hr 0.00 in0.0 mm
07:30 PM 78.5°F25.8°C 47.8°F8.8°C 34% 3.9 mph SE6.3 kmh SE 7.0 mph11.3 kmh 29.59 in1002.0 mb 0.00 in0.0 mm 0.00 in/hr0.0 mm/hr 0.00 in0.0 mm
07:45 PM 77.9°F25.5°C 48.0°F8.9°C 35% 4.8 mph ESE7.7 kmh ESE 8.0 mph12.9 kmh 29.59 in1002.0 mb 0.00 in0.0 mm 0.00 in/hr0.0 mm/hr 0.00 in0.0 mm
08:00 PM 77.6°F25.3°C 48.5°F9.2°C 36% 2.0 mph SE3.2 kmh SE 4.0 mph6.4 kmh 29.59 in1002.0 mb 0.00 in0.0 mm 0.00 in/hr0.0 mm/hr 0.00 in0.0 mm
08:15 PM 77.2°F25.1°C 48.2°F9.0°C 36% 3.9 mph SW6.3 kmh SW 5.0 mph8.0 kmh 29.59 in1002.0 mb 0.00 in0.0 mm 0.00 in/hr0.0 mm/hr 0.00 in0.0 mm
08:30 PM 76.7°F24.8°C 49.2°F9.6°C 38% 2.0 mph SE3.2 kmh SE 5.0 mph8.0 kmh 29.58 in1001.7 mb 0.00 in0.0 mm 0.00 in/hr0.0 mm/hr 0.00 in0.0 mm
08:45 PM 76.2°F24.6°C 48.7°F9.3°C 38% 4.1 mph SE6.6 kmh SE 6.0 mph9.7 kmh 29.59 in1002.0 mb 0.00 in0.0 mm 0.00 in/hr0.0 mm/hr 0.00 in0.0 mm
09:00 PM 76.2°F24.6°C 49.4°F9.7°C 39% 5.1 mph S8.2 kmh S 7.0 mph11.3 kmh 29.59 in1002.0 mb 0.00 in0.0 mm 0.00 in/hr0.0 mm/hr 0.00 in0.0 mm
09:15 PM 76.0°F24.4°C 49.9°F9.9°C 40% 3.0 mph E4.8 kmh E 5.0 mph8.0 kmh 29.60 in1002.4 mb 0.00 in0.0 mm 0.00 in/hr0.0 mm/hr 0.00 in0.0 mm
09:30 PM 75.7°F24.3°C 50.3°F10.2°C 41% 2.7 mph ESE4.3 kmh ESE 6.0 mph9.7 kmh 29.61 in1002.7 mb 0.00 in0.0 mm 0.00 in/hr0.0 mm/hr 0.00 in0.0 mm
09:45 PM 75.4°F24.1°C 50.1°F10.1°C 41% 5.1 mph SE8.2 kmh SE 8.0 mph12.9 kmh 29.62 in1003.0 mb 0.00 in0.0 mm 0.00 in/hr0.0 mm/hr 0.00 in0.0 mm
10:00 PM 75.1°F23.9°C 50.4°F10.2°C 42% 3.3 mph SSE5.3 kmh SSE 11.0 mph17.7 kmh 29.62 in1003.0 mb 0.00 in0.0 mm 0.00 in/hr0.0 mm/hr 0.00 in0.0 mm
10:15 PM 74.6°F23.7°C 50.6°F10.3°C 43% 4.2 mph SE6.8 kmh SE 9.0 mph14.5 kmh 29.62 in1003.0 mb 0.00 in0.0 mm 0.00 in/hr0.0 mm/hr 0.00 in0.0 mm
10:30 PM 74.2°F23.4°C 50.8°F10.4°C 44% 2.9 mph SW4.7 kmh SW 4.0 mph6.4 kmh 29.63 in1003.4 mb 0.00 in0.0 mm 0.00 in/hr0.0 mm/hr 0.00 in0.0 mm
10:45 PM 73.9°F23.3°C 51.2°F10.7°C 45% 1.9 mph SE3.1 kmh SE 4.0 mph6.4 kmh 29.63 in1003.4 mb 0.00 in0.0 mm 0.00 in/hr0.0 mm/hr 0.00 in0.0 mm
11:00 PM 73.5°F23.1°C 52.0°F11.1°C 47% 4.2 mph SSE6.8 kmh SSE 5.0 mph8.0 kmh 29.62 in1003.0 mb 0.00 in0.0 mm 0.00 in/hr0.0 mm/hr 0.00 in0.0 mm
11:15 PM 73.3°F22.9°C 52.4°F11.3°C 48% 4.1 mph SE6.6 kmh SE 8.0 mph12.9 kmh 29.61 in1002.7 mb 0.00 in0.0 mm 0.00 in/hr0.0 mm/hr 0.00 in0.0 mm
11:30 PM 73.1°F22.8°C 52.8°F11.6°C 49% 3.6 mph SE5.8 kmh SE 6.0 mph9.7 kmh 29.61 in1002.7 mb 0.00 in0.0 mm 0.00 in/hr0.0 mm/hr 0.00 in0.0 mm
11:45 PM 73.2°F22.9°C 53.4°F11.9°C 50% 1.5 mph E2.4 kmh E 3.0 mph4.8 kmh 29.60 in1002.4 mb 0.00 in0.0 mm 0.00 in/hr0.0 mm/hr 0.00 in0.0 mm